Time;durP1;ratioP1;P1;durP2;ratioP2;P2;SDS_P1;SDS_P2;PMS_P1;PMS_P2;Temp;Humidity;BMP_temperature;BMP_pressure;BME280_temperature;BME280_humidity;BME280_pressure;Samples;Min_cycle;Max_cycle;Signal;HPM_P1;HPM_P2
2022/07/10 00:01:26;;;;;;;2.03;1.00;;;17.50;99.90;;;;;;6220736;23;20149;-72
2022/07/10 00:03:54;;;;;;;1.95;0.70;;;17.50;99.90;;;;;;6214029;23;20196;-73
2022/07/10 00:06:22;;;;;;;3.10;0.82;;;17.50;99.90;;;;;;6220700;23;20165;-72
2022/07/10 00:08:48;;;;;;;1.73;0.85;;;17.40;99.90;;;;;;6219873;23;20179;-71
2022/07/10 00:11:15;;;;;;;2.83;1.33;;;17.40;99.90;;;;;;6220249;23;20185;-68
2022/07/10 00:13:43;;;;;;;3.63;1.00;;;17.40;99.90;;;;;;6217580;23;20145;-73
2022/07/10 00:16:09;;;;;;;2.25;0.90;;;17.30;99.90;;;;;;6216953;23;20180;-71
2022/07/10 00:18:35;;;;;;;2.00;0.70;;;17.30;99.90;;;;;;6220476;23;20154;-69
2022/07/10 00:21:01;;;;;;;2.08;0.80;;;17.30;99.90;;;;;;6215794;23;20195;-73
2022/07/10 00:23:26;;;;;;;3.10;0.90;;;17.20;99.90;;;;;;6215257;23;20208;-77
2022/07/10 00:25:52;;;;;;;2.88;1.02;;;17.20;99.90;;;;;;6214856;23;20341;-77
2022/07/10 00:28:18;;;;;;;5.03;1.15;;;17.20;99.90;;;;;;6215380;23;20164;-78
2022/07/10 00:30:45;;;;;;;1.75;1.00;;;17.10;99.90;;;;;;6214973;23;20444;-76
2022/07/10 00:33:11;;;;;;;1.67;1.00;;;17.10;99.90;;;;;;6214948;23;20231;-71
2022/07/10 00:35:39;;;;;;;2.17;0.88;;;17.10;99.90;;;;;;6214882;23;20173;-77
2022/07/10 00:38:07;;;;;;;1.58;1.00;;;17.00;99.90;;;;;;6214819;23;20185;-75
2022/07/10 00:40:32;;;;;;;3.30;1.30;;;17.00;99.90;;;;;;6214311;23;20168;-75
2022/07/10 00:42:58;;;;;;;4.43;1.20;;;17.00;99.90;;;;;;6214508;23;20165;-75
2022/07/10 00:45:26;;;;;;;3.28;1.10;;;16.90;99.90;;;;;;6215174;23;20188;-76
2022/07/10 00:47:52;;;;;;;1.98;1.10;;;16.90;99.90;;;;;;6214751;23;20181;-74
2022/07/10 00:50:19;;;;;;;3.42;1.20;;;16.90;99.90;;;;;;6214458;23;20172;-76
2022/07/10 00:52:46;;;;;;;1.83;0.88;;;16.80;99.90;;;;;;6214353;23;20160;-77
2022/07/10 00:55:13;;;;;;;2.90;1.17;;;16.80;99.90;;;;;;6214316;23;20215;-76
2022/07/10 00:57:40;;;;;;;2.20;1.10;;;16.80;99.90;;;;;;6214693;23;20168;-77
2022/07/10 01:00:11;;;;;;;1.63;1.10;;;16.80;99.90;;;;;;6214719;23;20156;-75
2022/07/10 01:02:41;;;;;;;3.80;1.15;;;16.80;99.90;;;;;;6215783;23;20180;-71
2022/07/10 01:05:06;;;;;;;2.00;1.20;;;16.80;99.90;;;;;;6214905;23;20224;-77
2022/07/10 01:07:32;;;;;;;3.13;1.10;;;16.80;99.90;;;;;;6214263;23;20176;-74
2022/07/10 01:09:59;;;;;;;1.80;0.80;;;16.70;99.90;;;;;;6214924;23;20180;-71
2022/07/10 01:12:27;;;;;;;2.45;1.10;;;16.70;99.90;;;;;;6214059;23;20154;-77
2022/07/10 01:14:56;;;;;;;1.85;0.93;;;16.70;99.90;;;;;;6213668;23;20149;-77
2022/07/10 01:17:25;;;;;;;2.50;1.20;;;16.60;99.90;;;;;;6213631;23;20154;-75
2022/07/10 01:19:51;;;;;;;4.40;1.20;;;16.60;99.90;;;;;;6215582;23;20209;-78
2022/07/10 01:22:16;;;;;;;2.13;1.08;;;16.50;99.90;;;;;;6214799;23;20177;-79
2022/07/10 01:24:43;;;;;;;1.38;1.00;;;16.50;99.90;;;;;;6214818;23;20214;-75
2022/07/10 01:27:13;;;;;;;4.97;1.25;;;16.40;99.90;;;;;;6214281;23;20478;-73
2022/07/10 01:29:39;;;;;;;2.47;1.13;;;16.30;99.90;;;;;;6214936;23;20154;-77
2022/07/10 01:32:05;;;;;;;3.22;1.10;;;16.30;99.90;;;;;;6213871;23;20181;-76
2022/07/10 01:34:33;;;;;;;2.28;1.10;;;16.20;99.90;;;;;;6213277;23;20177;-79
2022/07/10 01:36:59;;;;;;;2.72;1.10;;;16.20;99.90;;;;;;6214037;23;20167;-77
2022/07/10 01:39:29;;;;;;;1.52;1.00;;;16.10;99.90;;;;;;6213651;23;20232;-77
2022/07/10 01:41:55;;;;;;;2.85;1.20;;;16.00;99.90;;;;;;6214116;23;20197;-73
2022/07/10 01:44:20;;;;;;;3.00;1.33;;;16.00;99.90;;;;;;6214090;23;20160;-77
2022/07/10 01:46:49;;;;;;;4.32;1.33;;;15.90;99.90;;;;;;6214399;23;20164;-78
2022/07/10 01:49:15;;;;;;;2.45;1.00;;;15.90;99.90;;;;;;6214484;23;20156;-79
2022/07/10 01:51:43;;;;;;;1.95;1.02;;;15.90;99.90;;;;;;6214817;23;20255;-78
2022/07/10 01:54:09;;;;;;;2.65;1.20;;;15.80;99.90;;;;;;6215273;23;20153;-77
2022/07/10 01:56:35;;;;;;;2.17;1.05;;;15.80;99.90;;;;;;6214959;23;20215;-77
2022/07/10 01:59:03;;;;;;;2.08;1.02;;;15.80;99.90;;;;;;6214679;23;20228;-76
2022/07/10 02:01:29;;;;;;;2.40;0.98;;;15.70;99.90;;;;;;6214193;23;20161;-76
2022/07/10 02:06:41;;;;;;;3.03;1.00;;;15.70;99.90;;;;;;6214911;23;20149;-75
2022/07/10 02:09:07;;;;;;;2.72;1.10;;;15.60;99.90;;;;;;6214209;23;20157;-78
2022/07/10 02:11:32;;;;;;;1.83;1.20;;;15.60;99.90;;;;;;6213196;23;20181;-77
2022/07/10 02:14:02;;;;;;;3.13;1.00;;;15.60;99.90;;;;;;6213720;23;20285;-77
2022/07/10 02:16:28;;;;;;;3.40;1.20;;;15.60;99.90;;;;;;6213062;23;20160;-77
2022/07/10 02:18:54;;;;;;;3.17;1.15;;;15.60;99.90;;;;;;6213422;23;20157;-77
2022/07/10 02:21:19;;;;;;;3.90;1.20;;;15.60;99.90;;;;;;6213441;23;20383;-77
2022/07/10 02:23:47;;;;;;;2.97;1.25;;;15.60;99.90;;;;;;6214131;23;20240;-76
2022/07/10 02:26:15;;;;;;;1.65;0.90;;;15.60;99.90;;;;;;6213119;23;20157;-76
2022/07/10 02:28:40;;;;;;;2.47;1.08;;;15.60;99.90;;;;;;6213565;23;20165;-78
2022/07/10 02:31:08;;;;;;;3.05;1.10;;;15.60;99.90;;;;;;6213933;23;20249;-78
2022/07/10 02:33:36;;;;;;;2.63;1.00;;;15.60;99.90;;;;;;6213444;23;20152;-79
2022/07/10 02:36:03;;;;;;;2.58;1.05;;;15.60;99.90;;;;;;6213643;23;20172;-78
2022/07/10 02:38:30;;;;;;;1.88;1.00;;;15.60;99.90;;;;;;6214250;23;20157;-77
2022/07/10 02:40:56;;;;;;;2.95;1.40;;;15.60;99.90;;;;;;6214005;23;20287;-78
2022/07/10 02:43:26;;;;;;;2.53;1.00;;;15.60;99.90;;;;;;6214232;23;20191;-79
2022/07/10 02:45:52;;;;;;;2.47;1.45;;;15.60;99.90;;;;;;6214172;23;20344;-75
2022/07/10 02:48:19;;;;;;;2.40;1.10;;;15.70;99.90;;;;;;6214223;23;20604;-77
2022/07/10 02:50:47;;;;;;;3.22;1.00;;;15.70;99.90;;;;;;6213132;23;20208;-77
2022/07/10 02:53:13;;;;;;;2.15;1.00;;;15.80;99.90;;;;;;6213761;23;20158;-78
2022/07/10 02:55:41;;;;;;;3.30;1.02;;;15.80;99.90;;;;;;6213336;23;20248;-77
2022/07/10 02:58:09;;;;;;;2.13;1.10;;;15.80;99.90;;;;;;6214069;23;20158;-72
2022/07/10 03:00:35;;;;;;;2.05;1.15;;;15.90;99.90;;;;;;6213822;23;20235;-78
2022/07/10 03:03:01;;;;;;;2.22;0.93;;;15.90;99.90;;;;;;6213244;23;20157;-75
2022/07/10 03:05:27;;;;;;;2.88;1.05;;;15.90;99.90;;;;;;6213555;23;20153;-79
2022/07/10 03:07:53;;;;;;;2.78;1.00;;;15.90;99.90;;;;;;6213031;23;20161;-81
2022/07/10 03:10:23;;;;;;;3.20;1.02;;;16.00;99.90;;;;;;6212940;23;20284;-79
2022/07/10 03:12:51;;;;;;;3.60;1.10;;;15.90;99.90;;;;;;6213528;23;20232;-79
2022/07/10 03:15:16;;;;;;;3.00;1.05;;;15.90;99.90;;;;;;6212496;23;20165;-80
2022/07/10 03:17:42;;;;;;;4.10;1.00;;;15.90;99.90;;;;;;6213728;23;20257;-79
2022/07/10 03:20:09;;;;;;;2.70;1.02;;;15.90;99.90;;;;;;6213744;23;20145;-78
2022/07/10 03:22:35;;;;;;;3.58;1.20;;;15.90;99.90;;;;;;6214264;23;20154;-78
2022/07/10 03:25:03;;;;;;;2.85;1.15;;;15.80;99.90;;;;;;6213847;23;20153;-78
2022/07/10 03:27:29;;;;;;;1.75;0.90;;;15.80;99.90;;;;;;6214513;23;20153;-79
2022/07/10 03:29:56;;;;;;;1.38;0.85;;;15.80;99.90;;;;;;6214774;23;20219;-75
2022/07/10 03:32:22;;;;;;;1.10;0.73;;;15.80;99.90;;;;;;6213708;23;20145;-76
2022/07/10 03:34:50;;;;;;;1.98;0.90;;;15.80;99.90;;;;;;6213599;23;20312;-76
2022/07/10 03:37:16;;;;;;;1.80;0.90;;;15.80;99.90;;;;;;6212999;23;20165;-76
2022/07/10 03:39:41;;;;;;;1.67;0.90;;;15.70;99.90;;;;;;6213509;23;20236;-78
2022/07/10 03:42:07;;;;;;;2.00;1.10;;;15.80;99.90;;;;;;6213586;23;20157;-74
2022/07/10 03:44:32;;;;;;;2.05;1.00;;;15.80;99.90;;;;;;6212951;23;20263;-78
2022/07/10 03:46:58;;;;;;;2.72;1.20;;;15.80;99.90;;;;;;6213308;23;20165;-78
2022/07/10 03:49:24;;;;;;;3.10;1.10;;;15.90;99.90;;;;;;6214048;23;20192;-75
2022/07/10 03:51:50;;;;;;;1.95;0.90;;;15.90;99.90;;;;;;6214304;23;20203;-78
2022/07/10 03:54:17;;;;;;;1.77;1.00;;;15.90;99.90;;;;;;6213853;23;20157;-76
2022/07/10 03:59:35;;;;;;;2.20;1.05;;;15.90;99.90;;;;;;6214483;23;20221;-76
2022/07/10 04:02:00;;;;;;;2.80;0.90;;;15.90;99.90;;;;;;6212900;23;20271;-78
2022/07/10 04:04:27;;;;;;;2.95;0.98;;;15.90;99.90;;;;;;6213193;23;20252;-79
2022/07/10 04:06:53;;;;;;;2.45;1.00;;;15.90;99.90;;;;;;6212846;23;20161;-75
2022/07/10 04:09:18;;;;;;;2.67;1.10;;;15.90;99.90;;;;;;6213000;23;20157;-78
2022/07/10 04:11:46;;;;;;;4.10;1.00;;;15.90;99.90;;;;;;6212771;23;20172;-77
2022/07/10 04:14:12;;;;;;;2.38;0.90;;;15.90;99.90;;;;;;6213237;23;20313;-76
2022/07/10 04:16:40;;;;;;;5.82;1.00;;;15.90;99.90;;;;;;6212892;23;20168;-77
2022/07/10 04:19:12;;;;;;;3.15;1.20;;;15.90;99.90;;;;;;6212985;23;20177;-79
2022/07/10 04:21:43;;;;;;;3.25;1.48;;;16.00;99.90;;;;;;6213166;23;20196;-76
2022/07/10 04:24:08;;;;;;;2.75;1.00;;;16.00;99.90;;;;;;6213892;23;20165;-79
2022/07/10 04:26:36;;;;;;;2.90;1.35;;;16.00;99.90;;;;;;6212663;23;20230;-77
2022/07/10 04:29:04;;;;;;;6.18;2.78;;;16.00;99.90;;;;;;6213105;23;20177;-77
2022/07/10 04:31:34;;;;;;;3.72;1.80;;;16.00;99.90;;;;;;6213013;23;20169;-79
2022/07/10 04:34:00;;;;;;;4.85;1.40;;;16.00;99.90;;;;;;6213246;23;20177;-78
2022/07/10 04:36:26;;;;;;;2.15;1.20;;;16.00;99.90;;;;;;6213213;23;20260;-79
2022/07/10 04:38:51;;;;;;;8.05;1.85;;;16.00;99.90;;;;;;6213220;23;20153;-78
2022/07/10 04:41:19;;;;;;;4.53;1.60;;;16.00;99.90;;;;;;6212262;23;20204;-78
2022/07/10 04:43:45;;;;;;;2.65;1.30;;;16.00;99.90;;;;;;6213197;23;20177;-80
2022/07/10 04:46:13;;;;;;;4.70;1.60;;;16.00;99.90;;;;;;6212408;23;20337;-80
2022/07/10 04:48:41;;;;;;;3.30;1.10;;;16.00;99.90;;;;;;6213993;23;20161;-74
2022/07/10 04:51:06;;;;;;;3.38;1.27;;;15.90;99.90;;;;;;6212768;23;20200;-78
2022/07/10 04:53:34;;;;;;;3.08;0.82;;;15.90;99.90;;;;;;6214164;23;20150;-77
2022/07/10 04:56:02;;;;;;;2.53;1.10;;;15.90;99.90;;;;;;6215140;23;20153;-79
2022/07/10 04:58:28;;;;;;;2.67;0.98;;;15.90;99.90;;;;;;6215257;23;20153;-79
2022/07/10 05:00:54;;;;;;;4.47;1.55;;;15.90;99.90;;;;;;6216228;23;20158;-78
2022/07/10 05:03:22;;;;;;;3.75;1.33;;;15.90;99.90;;;;;;6215199;23;20218;-79
2022/07/10 05:05:47;;;;;;;4.85;1.40;;;16.00;99.90;;;;;;6214532;23;20173;-80
2022/07/10 05:08:13;;;;;;;2.22;1.10;;;16.00;99.90;;;;;;6215374;23;20161;-78
2022/07/10 05:10:43;;;;;;;2.50;1.13;;;16.00;99.90;;;;;;6214372;23;20200;-78
2022/07/10 05:13:11;;;;;;;2.75;1.17;;;16.10;99.90;;;;;;6214979;23;20224;-80
2022/07/10 05:15:37;;;;;;;2.72;1.05;;;16.20;99.90;;;;;;6214465;23;20164;-78
2022/07/10 05:18:05;;;;;;;2.97;1.20;;;16.20;99.90;;;;;;6214254;23;20288;-78
2022/07/10 05:20:35;;;;;;;3.85;1.10;;;16.30;99.90;;;;;;6214865;23;20154;-78
2022/07/10 05:23:01;;;;;;;7.95;3.42;;;16.40;99.90;;;;;;6216036;23;20149;-76
2022/07/10 05:25:30;;;;;;;5.10;1.92;;;16.50;99.90;;;;;;6218251;23;20180;-79
2022/07/10 05:27:55;;;;;;;3.95;1.75;;;16.60;99.90;;;;;;6215515;23;20156;-79
2022/07/10 05:30:24;;;;;;;2.97;1.13;;;16.70;99.90;;;;;;6215464;23;20177;-78
2022/07/10 05:32:52;;;;;;;3.88;1.27;;;16.80;99.90;;;;;;6214971;23;20177;-79
2022/07/10 05:35:22;;;;;;;1.73;1.08;;;16.90;99.90;;;;;;6214910;23;20153;-79
2022/07/10 05:37:48;;;;;;;3.47;1.27;;;17.00;99.90;;;;;;6189930;23;20137;-79
2022/07/10 05:40:13;;;;;;;2.33;1.20;;;17.00;99.90;;;;;;6190573;23;20192;-77
2022/07/10 05:42:39;;;;;;;2.00;1.00;;;17.10;99.90;;;;;;6189748;23;20157;-76
2022/07/10 05:45:06;;;;;;;7.13;1.75;;;17.10;99.90;;;;;;6189732;23;20149;-74
2022/07/10 05:47:34;;;;;;;3.83;1.67;;;17.10;99.90;;;;;;6188836;23;20149;-79
2022/07/10 05:50:02;;;;;;;3.85;1.40;;;17.20;99.90;;;;;;6189064;23;20157;-79
2022/07/10 05:52:28;;;;;;;3.65;1.20;;;17.20;99.90;;;;;;6189266;23;20146;-78
2022/07/10 05:54:56;;;;;;;3.67;1.17;;;17.20;99.90;;;;;;6189337;23;20208;-77
2022/07/10 05:57:23;;;;;;;3.55;1.40;;;17.20;99.90;;;;;;6188884;23;20228;-80
2022/07/10 05:59:49;;;;;;;4.72;1.20;;;17.20;99.90;;;;;;6188699;23;20169;-78
2022/07/10 06:02:16;;;;;;;4.35;1.40;;;17.20;99.90;;;;;;6188740;23;20269;-78
2022/07/10 06:04:44;;;;;;;5.78;1.10;;;17.30;99.90;;;;;;6188564;23;20153;-80
2022/07/10 06:07:10;;;;;;;3.30;1.10;;;17.30;99.90;;;;;;6189532;23;20173;-78
2022/07/10 06:09:36;;;;;;;2.85;1.30;;;17.40;99.90;;;;;;6189121;23;20153;-77
2022/07/10 06:12:02;;;;;;;1.77;0.90;;;17.40;99.90;;;;;;6188997;23;20173;-80
2022/07/10 06:14:28;;;;;;;3.50;1.55;;;17.50;99.90;;;;;;6188882;23;20184;-78
2022/07/10 06:16:53;;;;;;;3.08;1.50;;;17.60;99.90;;;;;;6188711;23;20213;-78
2022/07/10 06:19:19;;;;;;;3.03;1.40;;;17.60;99.90;;;;;;6189228;23;20154;-77
2022/07/10 06:22:30;;;;;;;3.70;1.27;;;17.70;99.90;;;;;;6188445;23;20545;-80
2022/07/10 06:24:35;;;;;;;2.97;1.27;;;17.70;99.90;;;;;;6213724;23;20160;-76
2022/07/10 06:27:00;;;;;;;4.00;1.40;;;17.80;99.90;;;;;;6189142;23;20229;-78
2022/07/10 06:29:26;;;;;;;2.65;1.20;;;17.80;99.90;;;;;;6188018;23;20196;-75
2022/07/10 06:31:51;;;;;;;2.70;1.20;;;17.80;99.90;;;;;;6188449;23;20319;-75
2022/07/10 06:34:17;;;;;;;2.60;1.25;;;17.80;99.90;;;;;;6188498;23;20161;-79
2022/07/10 06:36:45;;;;;;;3.65;1.27;;;17.80;99.90;;;;;;6205541;23;20177;-78
2022/07/10 06:39:15;;;;;;;3.17;1.10;;;17.80;99.90;;;;;;6213974;23;20149;-78
2022/07/10 06:41:43;;;;;;;3.80;1.58;;;17.80;99.90;;;;;;6213387;23;20165;-76
2022/07/10 06:44:11;;;;;;;2.53;0.95;;;17.80;99.90;;;;;;6214156;23;20196;-75
2022/07/10 06:46:36;;;;;;;2.55;0.95;;;17.80;99.90;;;;;;6214490;23;20196;-78
2022/07/10 06:49:02;;;;;;;2.85;1.00;;;17.70;99.90;;;;;;6213623;23;20153;-77
2022/07/10 06:51:28;;;;;;;4.00;1.00;;;17.70;99.90;;;;;;6214479;23;20224;-80
2022/07/10 06:53:55;;;;;;;1.65;1.00;;;17.70;99.90;;;;;;6216455;23;20161;-73
2022/07/10 06:56:23;;;;;;;5.75;1.73;;;17.70;99.90;;;;;;6214181;23;20288;-79
2022/07/10 06:58:49;;;;;;;2.72;1.20;;;17.70;99.90;;;;;;6214111;23;20153;-78
2022/07/10 07:01:19;;;;;;;2.67;1.00;;;17.70;99.90;;;;;;6213628;23;20153;-80
2022/07/10 07:03:46;;;;;;;5.78;1.10;;;17.70;99.90;;;;;;6214519;23;20153;-77
2022/07/10 07:06:14;;;;;;;3.92;1.38;;;17.80;99.90;;;;;;6217383;23;20260;-75
2022/07/10 07:08:40;;;;;;;3.00;1.20;;;17.80;99.90;;;;;;6215425;23;20207;-73
2022/07/10 07:11:06;;;;;;;4.63;1.60;;;17.90;99.90;;;;;;6212967;23;20173;-80
2022/07/10 07:13:31;;;;;;;2.70;1.52;;;17.90;99.90;;;;;;6213576;23;20445;-80
2022/07/10 07:16:00;;;;;;;4.00;1.90;;;18.00;99.90;;;;;;6212946;23;20161;-78
2022/07/10 07:18:35;;;;;;;3.28;1.98;;;18.10;99.90;;;;;;6213316;23;20149;-78
2022/07/10 07:23:45;;;;;;;3.55;2.03;;;18.20;99.90;;;;;;6214612;23;20190;-79
2022/07/10 07:26:13;;;;;;;3.55;1.95;;;18.30;99.90;;;;;;6213529;23;20215;-79
2022/07/10 07:28:41;;;;;;;1.73;1.40;;;18.30;99.90;;;;;;6213645;23;20163;-77
2022/07/10 07:31:11;;;;;;;2.42;1.50;;;18.40;99.90;;;;;;6212674;23;20183;-82
2022/07/10 07:33:37;;;;;;;3.97;1.63;;;18.40;99.90;;;;;;6212943;23;20184;-82
2022/07/10 07:36:03;;;;;;;3.22;1.60;;;18.40;99.90;;;;;;6215164;23;20196;-77
2022/07/10 07:38:29;;;;;;;3.95;1.50;;;18.40;99.90;;;;;;6216131;23;20172;-77
2022/07/10 07:40:55;;;;;;;3.35;1.30;;;18.50;99.90;;;;;;6213338;23;20199;-78
2022/07/10 07:43:20;;;;;;;2.97;1.77;;;18.50;99.90;;;;;;6212875;23;20244;-76
2022/07/10 07:45:47;;;;;;;3.03;1.50;;;18.50;99.90;;;;;;6212111;23;20254;-75
2022/07/10 07:48:12;;;;;;;2.88;1.20;;;18.60;99.90;;;;;;6213025;23;20153;-79
2022/07/10 07:50:38;;;;;;;2.35;1.20;;;18.70;99.90;;;;;;6213015;23;20248;-79
2022/07/10 07:53:08;;;;;;;2.22;1.10;;;18.80;99.90;;;;;;6212680;23;20185;-80
2022/07/10 07:55:35;;;;;;;2.90;1.30;;;18.80;99.90;;;;;;6212149;23;20160;-77
2022/07/10 07:58:01;;;;;;;3.88;1.40;;;18.80;99.90;;;;;;6213388;23;20256;-77
2022/07/10 08:00:28;;;;;;;3.25;1.33;;;18.70;99.90;;;;;;6213277;23;20221;-76
2022/07/10 08:02:55;;;;;;;3.35;1.30;;;18.70;99.90;;;;;;6213462;23;20168;-79
2022/07/10 08:05:24;;;;;;;2.45;1.40;;;18.70;99.90;;;;;;6212831;23;20158;-78
2022/07/10 08:07:52;;;;;;;3.63;2.20;;;18.70;99.90;;;;;;6214355;23;20164;-78
2022/07/10 08:10:20;;;;;;;3.72;1.52;;;18.60;99.90;;;;;;6213415;23;20227;-76
2022/07/10 08:12:46;;;;;;;5.55;1.92;;;18.60;99.90;;;;;;6212175;23;20300;-77
2022/07/10 08:15:14;;;;;;;4.20;1.50;;;18.60;99.90;;;;;;6214370;23;20157;-75
2022/07/10 08:17:41;;;;;;;1.80;1.20;;;18.60;99.90;;;;;;6213563;23;20173;-77
2022/07/10 08:20:13;;;;;;;2.75;1.20;;;18.50;99.90;;;;;;6213265;23;20211;-77
2022/07/10 08:22:41;;;;;;;3.45;1.17;;;18.50;99.90;;;;;;6213037;23;20168;-75
2022/07/10 08:25:07;;;;;;;3.05;1.30;;;18.50;99.90;;;;;;6213382;23;20185;-77
2022/07/10 08:27:34;;;;;;;2.72;1.20;;;18.50;99.90;;;;;;6213725;23;20157;-79
2022/07/10 08:30:00;;;;;;;2.13;1.20;;;18.50;99.90;;;;;;6219727;23;20185;-69
2022/07/10 08:32:31;;;;;;;2.17;1.30;;;18.60;99.90;;;;;;6222298;23;20200;-73
2022/07/10 08:34:59;;;;;;;6.50;1.65;;;18.60;99.90;;;;;;6225684;23;20162;-72
2022/07/10 08:37:27;;;;;;;2.97;1.25;;;18.70;99.90;;;;;;6221122;23;20243;-73
2022/07/10 08:39:53;;;;;;;2.58;1.20;;;18.80;99.90;;;;;;6220446;23;20225;-67
2022/07/10 08:42:20;;;;;;;3.80;1.60;;;18.80;99.90;;;;;;6226839;23;20169;-72
2022/07/10 08:44:48;;;;;;;3.95;1.52;;;18.90;99.90;;;;;;6222401;23;20213;-68
2022/07/10 08:47:15;;;;;;;2.88;1.42;;;19.00;99.90;;;;;;6216875;23;20169;-72
2022/07/10 08:49:49;;;;;;;2.85;1.48;;;19.00;99.90;;;;;;6217274;23;20157;-72
2022/07/10 08:52:21;;;;;;;2.65;1.10;;;19.00;99.90;;;;;;6217441;23;20177;-72
2022/07/10 08:54:46;;;;;;;2.55;1.30;;;19.10;99.90;;;;;;6217725;23;20157;-72
2022/07/10 08:57:15;;;;;;;4.00;1.50;;;19.10;99.90;;;;;;6215744;23;20146;-72
2022/07/10 08:59:41;;;;;;;2.30;1.40;;;19.10;99.90;;;;;;6222756;23;20271;-72
2022/07/10 09:02:07;;;;;;;2.78;1.33;;;19.10;99.90;;;;;;6216769;23;20158;-71
2022/07/10 09:04:32;;;;;;;2.13;1.35;;;19.10;99.90;;;;;;6219354;23;20157;-72
2022/07/10 09:07:00;;;;;;;2.63;1.38;;;19.20;99.90;;;;;;6218887;23;20191;-71
2022/07/10 09:09:28;;;;;;;3.28;1.58;;;19.20;99.90;;;;;;6215688;23;20162;-72
2022/07/10 09:11:57;;;;;;;2.58;1.60;;;19.30;99.90;;;;;;6216171;23;20177;-70
2022/07/10 09:14:27;;;;;;;4.28;1.80;;;19.40;99.90;;;;;;6218131;23;20188;-72
2022/07/10 09:16:53;;;;;;;3.10;1.58;;;19.50;99.90;;;;;;6221649;23;20153;-70
2022/07/10 09:19:28;;;;;;;2.42;1.50;;;19.50;99.90;;;;;;6217568;23;20153;-72
2022/07/10 09:22:06;;;;;;;2.85;1.67;;;19.50;99.90;;;;;;6218047;23;20181;-72
2022/07/10 09:24:43;;;;;;;1.73;1.48;;;19.60;99.90;;;;;;6220851;23;20153;-69
2022/07/10 09:27:10;;;;;;;3.38;1.58;;;19.60;99.90;;;;;;6216942;23;20145;-70
2022/07/10 09:29:48;;;;;;;2.58;1.60;;;19.60;99.90;;;;;;6218322;23;20177;-74
2022/07/10 09:32:16;;;;;;;2.58;1.33;;;19.60;99.90;;;;;;6217212;23;20240;-72
2022/07/10 09:34:44;;;;;;;2.40;1.63;;;19.50;99.90;;;;;;6216305;23;20156;-72
2022/07/10 09:37:19;;;;;;;2.03;1.50;;;19.60;99.90;;;;;;6213019;23;20211;-73
2022/07/10 09:39:58;;;;;;;2.47;1.65;;;19.60;99.90;;;;;;6215896;23;20159;-68
2022/07/10 09:42:37;;;;;;;3.08;1.90;;;19.60;99.90;;;;;;6215442;23;20260;-73
2022/07/10 09:47:41;;;;;;;2.88;1.73;;;19.60;99.90;;;;;;6214763;23;20176;-72
2022/07/10 09:50:27;;;;;;;2.50;1.65;;;19.60;99.90;;;;;;6213209;23;20196;-70
2022/07/10 09:53:07;;;;;;;2.90;1.65;;;19.60;99.90;;;;;;6213065;23;20215;-72
2022/07/10 09:55:36;;;;;;;3.10;1.73;;;19.60;99.90;;;;;;6212891;23;20153;-72
2022/07/10 09:58:05;;;;;;;4.00;1.90;;;19.60;99.90;;;;;;6216302;23;20157;-72
2022/07/10 10:00:32;;;;;;;4.25;1.90;;;19.60;99.90;;;;;;6212523;23;20153;-72
2022/07/10 10:03:02;;;;;;;2.38;1.77;;;19.50;99.90;;;;;;6211825;23;20189;-73
2022/07/10 10:05:54;;;;;;;3.15;2.13;;;19.60;99.90;;;;;;6212674;23;20275;-73
2022/07/10 10:08:35;;;;;;;3.40;1.70;;;19.60;99.90;;;;;;6212923;23;20157;-71
2022/07/10 10:11:02;;;;;;;2.28;1.70;;;19.70;99.90;;;;;;6212068;23;20197;-73
2022/07/10 10:13:33;;;;;;;1.95;1.67;;;19.80;99.90;;;;;;6212823;23;20157;-72
2022/07/10 10:16:01;;;;;;;2.90;2.10;;;19.90;99.90;;;;;;6212708;23;20149;-72
2022/07/10 10:18:29;;;;;;;4.22;1.85;;;20.00;99.90;;;;;;6211884;23;20177;-71
2022/07/10 10:20:55;;;;;;;4.15;1.92;;;20.10;99.90;;;;;;6212349;23;20157;-71
2022/07/10 10:23:25;;;;;;;3.88;1.90;;;20.20;99.90;;;;;;6211988;23;20191;-73
2022/07/10 10:25:54;;;;;;;2.97;1.90;;;20.20;99.90;;;;;;6212214;23;20184;-72
2022/07/10 10:28:23;;;;;;;3.35;1.63;;;20.30;99.90;;;;;;6212531;23;20153;-73
2022/07/10 10:30:56;;;;;;;3.45;1.80;;;20.40;99.90;;;;;;6211451;23;20185;-72
2022/07/10 10:33:34;;;;;;;2.80;1.88;;;20.50;99.90;;;;;;6211978;23;20160;-73
2022/07/10 10:36:01;;;;;;;2.58;1.45;;;20.50;99.90;;;;;;6164525;23;1141697;-73
2022/07/10 10:39:10;;;;;;;2.20;1.70;;;20.50;99.90;;;;;;6213273;23;20185;-73
2022/07/10 10:41:39;;;;;;;3.40;1.60;;;20.40;99.90;;;;;;6097752;23;20226;-72
2022/07/10 10:44:16;;;;;;;3.35;1.73;;;20.40;99.90;;;;;;6200885;23;20157;-72
2022/07/10 10:46:54;;;;;;;3.15;1.50;;;20.30;99.90;;;;;;6213760;23;20628;-70
2022/07/10 10:49:25;;;;;;;1.45;1.15;;;20.30;99.90;;;;;;6213354;23;20448;-71
2022/07/10 10:52:07;;;;;;;2.95;1.35;;;20.20;99.90;;;;;;6212675;23;20235;-73
2022/07/10 10:54:57;;;;;;;1.65;1.17;;;20.10;99.90;;;;;;6213696;23;20157;-73
2022/07/10 10:57:43;;;;;;;2.30;1.00;;;20.10;99.90;;;;;;6217093;23;20149;-72
2022/07/10 11:00:13;;;;;;;3.30;1.10;;;20.10;99.90;;;;;;6216964;23;20443;-73
2022/07/10 11:02:39;;;;;;;1.63;0.88;;;20.00;99.90;;;;;;6214733;23;20153;-73
2022/07/10 11:05:14;;;;;;;3.00;1.20;;;19.90;99.90;;;;;;6213474;23;20153;-72
2022/07/10 11:08:03;;;;;;;2.10;0.98;;;19.80;99.90;;;;;;6213021;23;20176;-72
2022/07/10 11:10:33;;;;;;;2.80;1.17;;;19.80;99.90;;;;;;6213428;23;20202;-71
2022/07/10 11:13:02;;;;;;;2.13;1.00;;;19.70;99.90;;;;;;6213413;23;20203;-70
2022/07/10 11:15:32;;;;;;;2.90;1.25;;;19.70;99.90;;;;;;6213190;23;20267;-73
2022/07/10 11:18:05;;;;;;;1.75;1.45;;;19.60;99.90;;;;;;6213550;23;20158;-70
2022/07/10 11:20:40;;;;;;;3.25;1.45;;;19.50;99.90;;;;;;6216720;23;20165;-68
2022/07/10 11:23:31;;;;;;;2.08;1.60;;;19.50;99.90;;;;;;6220503;23;20181;-73
2022/07/10 11:26:08;;;;;;;2.20;1.45;;;19.50;99.90;;;;;;6215682;23;20153;-72
2022/07/10 11:28:59;;;;;;;1.50;1.30;;;19.40;99.90;;;;;;6216661;23;20181;-71
2022/07/10 11:31:26;;;;;;;2.97;1.33;;;19.30;99.90;;;;;;6218771;23;20204;-70
2022/07/10 11:33:56;;;;;;;2.45;1.20;;;19.30;99.90;;;;;;6222883;23;20327;-72
2022/07/10 11:36:31;;;;;;;2.85;1.15;;;19.40;99.90;;;;;;6218060;23;20247;-71
2022/07/10 11:39:05;;;;;;;2.72;0.90;;;19.40;99.90;;;;;;6214647;23;20231;-71
2022/07/10 11:41:31;;;;;;;3.05;1.20;;;19.40;99.90;;;;;;6217993;23;20236;-70
2022/07/10 11:44:03;;;;;;;1.55;1.00;;;19.50;99.90;;;;;;6219852;23;20160;-72
2022/07/10 11:46:33;;;;;;;2.15;1.30;;;19.50;99.90;;;;;;6214665;23;20161;-70
2022/07/10 11:49:05;;;;;;;2.08;1.20;;;19.50;99.90;;;;;;6212973;23;20217;-72
2022/07/10 11:51:36;;;;;;;6.03;1.67;;;19.50;99.90;;;;;;6215568;23;20184;-73
2022/07/10 11:54:20;;;;;;;2.35;1.25;;;19.40;99.90;;;;;;6217265;23;20164;-71
2022/07/10 11:56:53;;;;;;;3.53;1.23;;;19.40;99.90;;;;;;6216056;23;20145;-71
2022/07/10 11:59:25;;;;;;;2.50;1.30;;;19.50;99.90;;;;;;6216692;23;20150;-71
2022/07/10 12:01:56;;;;;;;2.58;1.40;;;19.40;99.90;;;;;;6219918;23;20176;-71
2022/07/10 12:04:25;;;;;;;3.38;1.50;;;19.40;99.90;;;;;;6213001;23;20260;-71
2022/07/10 12:06:53;;;;;;;1.60;1.15;;;19.40;99.90;;;;;;6212722;23;20221;-71
2022/07/10 12:09:24;;;;;;;3.00;1.60;;;19.30;99.90;;;;;;6214141;23;20157;-68
2022/07/10 12:11:58;;;;;;;6.45;1.58;;;19.30;99.90;;;;;;6213715;23;20177;-72
2022/07/10 12:14:26;;;;;;;2.25;1.70;;;19.30;99.90;;;;;;6216881;23;20152;-70
2022/07/10 12:16:56;;;;;;;2.95;2.00;;;19.30;99.90;;;;;;6216509;23;20244;-70
2022/07/10 12:19:32;;;;;;;1.95;1.50;;;19.30;99.90;;;;;;6218557;23;20153;-70
2022/07/10 12:22:00;;;;;;;2.97;1.60;;;19.30;99.90;;;;;;6216073;23;20181;-69
2022/07/10 12:24:28;;;;;;;2.13;1.30;;;19.30;99.90;;;;;;6221318;23;20157;-74
2022/07/10 12:26:59;;;;;;;2.50;1.40;;;19.30;99.90;;;;;;6221789;23;20208;-71
2022/07/10 12:29:27;;;;;;;2.90;1.35;;;19.30;99.90;;;;;;6216646;23;20176;-74
2022/07/10 12:32:00;;;;;;;2.97;1.60;;;19.30;99.90;;;;;;6224081;23;20256;-69
2022/07/10 12:34:36;;;;;;;4.00;1.92;;;19.20;99.90;;;;;;6220665;23;20239;-70
2022/07/10 12:37:12;;;;;;;3.25;1.85;;;19.20;99.90;;;;;;6216602;23;20267;-72
2022/07/10 12:39:47;;;;;;;2.72;1.60;;;19.10;99.90;;;;;;6216095;23;20153;-70
2022/07/10 12:42:26;;;;;;;1.50;1.30;;;19.10;99.90;;;;;;6218066;23;20179;-73
2022/07/10 12:44:51;;;;;;;2.85;1.52;;;19.10;99.90;;;;;;6220245;23;20158;-72
2022/07/10 12:47:21;;;;;;;3.92;1.58;;;19.10;99.90;;;;;;6217004;23;20161;-69
2022/07/10 12:49:54;;;;;;;2.75;1.70;;;19.20;99.90;;;;;;6218676;23;20168;-72
2022/07/10 12:52:24;;;;;;;1.65;1.40;;;19.20;99.90;;;;;;6216402;23;20188;-71
2022/07/10 12:55:15;;;;;;;3.13;1.50;;;19.20;99.90;;;;;;6215983;23;20176;-70
2022/07/10 12:58:04;;;;;;;5.20;1.77;;;19.20;99.90;;;;;;6215294;23;20245;-71
2022/07/10 13:00:34;;;;;;;2.05;1.40;;;19.20;99.90;;;;;;6214607;23;20236;-71
2022/07/10 13:03:00;;;;;;;3.45;1.55;;;19.20;99.90;;;;;;6220955;23;20283;-71
2022/07/10 13:05:40;;;;;;;2.40;1.55;;;19.20;99.90;;;;;;6214672;23;20150;-67
2022/07/10 13:08:25;;;;;;;2.15;1.85;;;19.20;99.90;;;;;;6217967;23;20232;-68